Time;durP1;ratioP1;P1;durP2;ratioP2;P2;SDS_P1;SDS_P2;PMS_P1;PMS_P2;Temp;Humidity;BMP_temperature;BMP_pressure;BME280_temperature;BME280_humidity;BME280_pressure;Samples;Min_cycle;Max_cycle;Signal;HPM_P1;HPM_P2
2021/09/13 00:02:01;;;;;;;20.80;16.25;;;;;;;18.70;64.04;99987.56;5067745;28;20098;-72
2021/09/13 00:04:28;;;;;;;20.02;15.63;;;;;;;18.71;64.20;99986.56;5066269;28;20044;-73
2021/09/13 00:06:55;;;;;;;22.13;14.68;;;;;;;18.71;64.20;99983.91;5067977;28;20049;-72
2021/09/13 00:09:23;;;;;;;18.60;15.68;;;;;;;18.70;64.31;99975.03;5067776;28;20060;-73
2021/09/13 00:11:50;;;;;;;18.00;15.15;;;;;;;18.69;64.03;99975.19;5069061;28;20049;-74
2021/09/13 00:14:18;;;;;;;18.80;14.20;;;;;;;18.66;64.09;99970.19;5067541;28;20055;-74
2021/09/13 00:16:44;;;;;;;18.23;13.63;;;;;;;18.58;64.01;99984.41;5068113;28;20048;-73
2021/09/13 00:19:11;;;;;;;17.33;14.57;;;;;;;18.54;63.92;99977.72;5067250;28;20049;-74
2021/09/13 00:21:38;;;;;;;19.73;14.57;;;;;;;18.51;63.81;99980.75;5068277;28;20602;-71
2021/09/13 00:24:06;;;;;;;16.42;13.02;;;;;;;18.49;63.85;99974.72;5068079;28;20040;-73
2021/09/13 00:26:34;;;;;;;16.60;13.40;;;;;;;18.48;63.97;99970.41;5067603;28;20456;-72
2021/09/13 00:29:01;;;;;;;19.35;13.85;;;;;;;18.45;63.98;99976.91;5066175;28;20048;-74
2021/09/13 00:31:28;;;;;;;17.13;13.75;;;;;;;18.45;64.26;99978.75;5067523;28;20056;-74
2021/09/13 00:33:54;;;;;;;19.25;14.65;;;;;;;18.43;64.27;99984.25;5066352;28;20059;-74
2021/09/13 00:36:21;;;;;;;18.85;14.57;;;;;;;18.43;64.09;99980.75;5067307;28;20040;-75
2021/09/13 00:38:48;;;;;;;20.80;14.75;;;;;;;18.41;64.14;99986.28;5066377;28;20057;-72
2021/09/13 00:41:15;;;;;;;19.30;14.85;;;;;;;18.40;64.38;99981.94;5066989;28;20086;-68
2021/09/13 00:43:45;;;;;;;19.23;15.23;;;;;;;18.39;64.49;99977.59;5067563;28;20493;-69
2021/09/13 00:46:12;;;;;;;21.23;16.27;;;;;;;18.36;64.53;99982.44;5066674;28;20051;-71
2021/09/13 00:48:39;;;;;;;18.50;14.85;;;;;;;18.30;64.65;99986.63;5066609;28;20041;-72
2021/09/13 00:51:06;;;;;;;19.15;15.25;;;;;;;18.26;64.78;99983.44;5070311;28;20037;-73
2021/09/13 00:53:33;;;;;;;20.38;14.73;;;;;;;18.24;64.76;99980.13;5065656;28;20075;-70
2021/09/13 00:56:00;;;;;;;19.08;15.63;;;;;;;18.22;64.97;99979.44;5067178;28;20044;-74
2021/09/13 00:58:29;;;;;;;17.45;14.93;;;;;;;18.16;65.05;99985.44;5064624;28;20052;-72
2021/09/13 01:00:57;;;;;;;23.25;17.17;;;;;;;18.12;65.15;99976.09;5067130;28;20483;-74
2021/09/13 01:03:24;;;;;;;23.38;17.30;;;;;;;18.10;65.14;99976.28;5068916;28;20472;-71
2021/09/13 01:05:52;;;;;;;24.63;15.63;;;;;;;18.09;65.20;99974.59;5068974;28;20131;-77
2021/09/13 01:08:19;;;;;;;24.65;17.45;;;;;;;18.06;65.24;99969.59;5065820;28;20057;-71
2021/09/13 01:10:47;;;;;;;25.20;18.30;;;;;;;18.03;65.65;99967.25;5068012;28;20044;-72
2021/09/13 01:13:15;;;;;;;25.55;18.27;;;;;;;18.02;65.82;99964.72;5067411;28;20052;-74
2021/09/13 01:15:42;;;;;;;25.90;20.42;;;;;;;18.03;66.30;99969.09;5066148;28;20051;-73
2021/09/13 01:18:11;;;;;;;25.83;19.02;;;;;;;18.05;66.20;99967.91;5067026;28;20068;-74
2021/09/13 01:20:38;;;;;;;26.38;18.65;;;;;;;18.09;66.21;99971.91;5066797;28;20049;-73
2021/09/13 01:23:09;;;;;;;24.92;18.38;;;;;;;18.14;66.22;99971.44;5066127;28;20048;-72
2021/09/13 01:25:38;;;;;;;23.75;16.33;;;;;;;18.18;66.08;99969.25;5066697;28;20056;-71
2021/09/13 01:28:05;;;;;;;21.90;15.95;;;;;;;18.18;65.85;99966.56;5066847;28;20048;-72
2021/09/13 01:30:33;;;;;;;21.70;16.63;;;;;;;18.21;65.94;99975.09;5064231;28;20412;-69
2021/09/13 01:33:00;;;;;;;21.15;15.73;;;;;;;18.21;65.70;99975.09;5068000;28;20040;-74
2021/09/13 01:35:27;;;;;;;21.23;17.27;;;;;;;18.21;65.54;99968.94;5066399;28;20408;-73
2021/09/13 01:37:54;;;;;;;22.67;16.77;;;;;;;18.21;65.45;99975.09;5065842;28;20051;-74
2021/09/13 01:40:21;;;;;;;19.75;14.50;;;;;;;18.17;65.49;99964.91;5066931;28;20052;-70
2021/09/13 01:42:49;;;;;;;19.10;13.77;;;;;;;18.12;65.20;99968.09;5066069;28;20045;-70
2021/09/13 01:45:16;;;;;;;18.10;13.75;;;;;;;18.05;65.00;99965.25;5066026;28;20489;-70
2021/09/13 01:47:43;;;;;;;20.10;14.73;;;;;;;18.03;64.82;99966.41;5066846;28;20049;-70
2021/09/13 01:50:10;;;;;;;18.70;13.85;;;;;;;17.99;64.90;99965.91;5066129;28;20045;-71
2021/09/13 01:52:37;;;;;;;17.38;13.70;;;;;;;17.96;64.91;99966.25;5065871;28;20132;-72
2021/09/13 01:55:05;;;;;;;17.80;14.48;;;;;;;17.93;64.89;99966.56;5067442;28;20044;-71
2021/09/13 01:57:31;;;;;;;19.50;14.85;;;;;;;17.93;65.08;99969.25;5066100;28;20051;-73
2021/09/13 02:00:01;;;;;;;21.00;15.93;;;;;;;17.93;65.18;99969.25;5064647;28;20040;-69
2021/09/13 02:02:29;;;;;;;19.17;15.55;;;;;;;17.93;65.07;99967.44;5067238;28;20427;-71
2021/09/13 02:04:56;;;;;;;22.60;15.35;;;;;;;17.94;65.13;99970.91;5065082;28;20463;-70
2021/09/13 02:07:23;;;;;;;27.77;17.15;;;;;;;17.97;65.17;99973.28;5065792;28;20051;-71
2021/09/13 02:09:52;;;;;;;23.55;17.30;;;;;;;18.03;65.12;99966.41;5067157;28;20048;-73
2021/09/13 02:12:19;;;;;;;22.10;17.08;;;;;;;18.04;65.13;99966.25;5065660;28;20442;-69
2021/09/13 02:14:46;;;;;;;24.58;18.75;;;;;;;18.01;65.30;99966.59;5066446;28;20157;-70
2021/09/13 02:17:15;;;;;;;25.30;16.73;;;;;;;18.04;65.01;99971.59;5065711;28;20385;-71
2021/09/13 02:19:42;;;;;;;21.42;15.52;;;;;;;18.07;64.86;99979.25;5065307;28;20135;-73
2021/09/13 02:22:09;;;;;;;17.15;13.82;;;;;;;18.10;64.43;99978.13;5067176;28;20519;-75
2021/09/13 02:24:36;;;;;;;17.35;13.85;;;;;;;18.15;64.23;99973.09;5066025;28;20059;-72
2021/09/13 02:27:03;;;;;;;19.27;14.55;;;;;;;18.17;64.00;99973.78;5065869;28;20056;-76
2021/09/13 02:29:30;;;;;;;16.90;14.13;;;;;;;18.19;64.10;99979.78;5065038;28;20099;-69
2021/09/13 02:31:57;;;;;;;18.83;14.07;;;;;;;18.20;63.85;99980.59;5066712;28;20494;-70
2021/09/13 02:34:25;;;;;;;15.05;12.45;;;;;;;18.20;63.71;99977.94;5064669;28;20055;-73
2021/09/13 02:36:52;;;;;;;16.70;13.27;;;;;;;18.19;63.71;99977.09;5066506;28;20048;-70
2021/09/13 02:39:19;;;;;;;22.63;14.63;;;;;;;18.22;63.64;99978.59;5065556;28;20040;-71
2021/09/13 02:41:46;;;;;;;18.33;14.75;;;;;;;18.23;63.80;99978.44;5067700;28;20136;-71
2021/09/13 02:44:13;;;;;;;21.63;14.75;;;;;;;18.27;63.97;99973.59;5066358;28;20052;-70
2021/09/13 02:46:40;;;;;;;21.95;18.10;;;;;;;18.29;64.06;99976.91;5065690;28;20041;-70
2021/09/13 02:49:07;;;;;;;22.75;16.10;;;;;;;18.24;64.17;99976.59;5064484;28;20056;-71
2021/09/13 02:51:36;;;;;;;22.15;16.25;;;;;;;18.15;64.40;99976.59;5066165;28;20040;-70
2021/09/13 02:54:03;;;;;;;25.48;17.23;;;;;;;18.11;64.56;99971.75;5065084;28;20056;-71
2021/09/13 02:56:30;;;;;;;21.55;15.48;;;;;;;18.11;64.60;99971.75;5065103;28;20051;-72
2021/09/13 02:58:56;;;;;;;19.42;15.35;;;;;;;18.06;64.96;99968.75;5064437;28;20053;-68
2021/09/13 03:01:23;;;;;;;21.50;15.85;;;;;;;18.05;64.81;99975.09;5065100;28;20040;-73
2021/09/13 03:03:50;;;;;;;21.15;15.73;;;;;;;18.02;65.06;99973.59;5065008;28;20047;-73
2021/09/13 03:06:17;;;;;;;24.67;17.65;;;;;;;18.02;64.99;99968.22;5065603;28;20045;-71
2021/09/13 03:08:45;;;;;;;22.88;16.33;;;;;;;18.04;65.08;99971.59;5065422;28;20606;-74
2021/09/13 03:11:12;;;;;;;22.40;16.52;;;;;;;18.07;65.05;99973.09;5065675;28;20131;-72
2021/09/13 03:13:39;;;;;;;24.77;18.20;;;;;;;18.06;65.10;99966.94;5066211;28;20044;-74
2021/09/13 03:16:06;;;;;;;27.55;18.15;;;;;;;18.10;64.92;99972.78;5064950;28;20128;-71
2021/09/13 03:18:33;;;;;;;26.20;18.48;;;;;;;18.11;65.14;99972.59;5065484;28;20052;-72
2021/09/13 03:21:01;;;;;;;22.98;18.45;;;;;;;18.12;65.17;99973.44;5065820;28;20052;-70
2021/09/13 03:23:28;;;;;;;23.13;16.65;;;;;;;18.14;65.18;99974.91;5065923;28;20087;-74
2021/09/13 03:25:58;;;;;;;22.02;16.70;;;;;;;18.18;65.05;99974.59;5066062;28;20060;-75
2021/09/13 03:28:25;;;;;;;23.27;16.25;;;;;;;18.22;64.75;99970.56;5065743;28;20048;-75
2021/09/13 03:30:52;;;;;;;22.10;16.58;;;;;;;18.25;64.83;99971.06;5068441;28;20063;-74
2021/09/13 03:33:19;;;;;;;23.75;16.38;;;;;;;18.25;64.68;99975.59;5068854;28;20527;-68
2021/09/13 03:35:46;;;;;;;22.83;16.48;;;;;;;18.22;64.78;99978.59;5071167;28;20783;-72
2021/09/13 03:38:14;;;;;;;24.15;17.15;;;;;;;18.21;64.93;99980.44;5068410;28;20048;-70
2021/09/13 03:40:41;;;;;;;18.40;14.90;;;;;;;18.20;64.73;99983.28;5069127;28;20049;-71
2021/09/13 03:43:09;;;;;;;23.38;16.27;;;;;;;18.19;64.77;99979.78;5069330;28;20051;-70
2021/09/13 03:45:36;;;;;;;21.90;16.75;;;;;;;18.18;64.69;99985.28;5068499;28;20044;-71
2021/09/13 03:48:03;;;;;;;21.20;16.27;;;;;;;18.16;64.97;99988.13;5069284;28;20416;-74
2021/09/13 03:50:30;;;;;;;22.20;17.42;;;;;;;18.15;64.96;99979.28;5068978;28;20053;-74
2021/09/13 03:52:57;;;;;;;22.70;16.15;;;;;;;18.15;64.81;99987.31;5069170;28;20113;-71
2021/09/13 03:55:24;;;;;;;23.65;17.70;;;;;;;18.15;64.87;99981.94;5069299;28;20044;-72
2021/09/13 03:57:51;;;;;;;24.70;18.02;;;;;;;18.18;64.73;99988.78;5068359;28;20051;-71
2021/09/13 04:00:19;;;;;;;22.13;15.25;;;;;;;18.19;64.77;99989.66;5067178;28;20040;-71
2021/09/13 04:02:47;;;;;;;25.33;18.10;;;;;;;18.18;64.54;99986.13;5068767;28;20399;-72
2021/09/13 04:05:18;;;;;;;20.95;16.52;;;;;;;18.22;64.73;99984.81;5068137;28;20495;-72
2021/09/13 04:08:04;;;;;;;24.45;17.25;;;;;;;18.22;64.80;99983.94;5067857;28;20060;-72
2021/09/13 04:10:34;;;;;;;;;;;;;;;18.60;63.46;99993.13;5069311;28;20058;-72
2021/09/13 04:13:00;;;;;;;26.35;16.52;;;;;;;18.30;64.28;99995.47;5067854;28;19921;-72
2021/09/13 04:15:29;;;;;;;24.42;18.70;;;;;;;18.27;64.57;99993.13;5068549;28;20048;-73
2021/09/13 04:17:56;;;;;;;26.70;20.23;;;;;;;18.28;64.46;99989.47;5069596;28;20056;-72
2021/09/13 04:20:23;;;;;;;33.20;24.17;;;;;;;18.32;64.56;99995.31;5069193;28;20056;-77
2021/09/13 04:22:50;;;;;;;41.45;35.38;;;;;;;18.38;64.52;99993.81;5069660;28;20048;-74
2021/09/13 04:25:17;;;;;;;30.90;20.73;;;;;;;18.42;64.61;99987.97;5071419;28;20109;-70
2021/09/13 04:27:44;;;;;;;27.02;20.13;;;;;;;18.44;64.67;99996.66;5071541;28;20123;-71
2021/09/13 04:30:12;;;;;;;25.73;19.33;;;;;;;18.49;64.33;99999.66;5069128;28;20075;-78
2021/09/13 04:32:41;;;;;;;26.67;19.08;;;;;;;18.55;64.36;99992.78;5069870;28;20044;-72
2021/09/13 04:35:09;;;;;;;29.48;20.73;;;;;;;18.59;64.53;100009.34;5069690;28;20075;-71
2021/09/13 04:37:36;;;;;;;26.80;20.67;;;;;;;18.60;64.10;100003.81;5070772;28;20080;-73
2021/09/13 04:40:03;;;;;;;30.75;20.67;;;;;;;18.65;64.33;100000.63;5068900;28;20658;-71
2021/09/13 04:42:30;;;;;;;29.70;21.33;;;;;;;18.68;64.26;100005.63;5068736;28;20466;-71
2021/09/13 04:44:57;;;;;;;30.55;20.08;;;;;;;18.70;63.93;100008.97;5071648;28;20143;-80
2021/09/13 04:47:24;;;;;;;36.35;22.83;;;;;;;18.74;63.92;100018.31;5070867;28;20123;-76
2021/09/13 04:49:52;;;;;;;28.23;20.23;;;;;;;18.78;63.96;100016.13;5071024;28;20048;-72
2021/09/13 04:52:19;;;;;;;31.90;21.92;;;;;;;18.80;63.82;100006.09;5073093;28;20131;-73
2021/09/13 04:54:46;;;;;;;27.45;18.98;;;;;;;18.85;63.99;100011.81;5072259;28;20041;-75
2021/09/13 04:57:13;;;;;;;29.05;19.73;;;;;;;18.85;63.92;100015.34;5070638;28;20579;-73
2021/09/13 04:59:40;;;;;;;27.73;19.50;;;;;;;18.91;63.76;100014.63;5073151;28;20048;-70
2021/09/13 05:02:07;;;;;;;26.17;18.80;;;;;;;18.97;63.70;100023.00;5073364;28;20412;-73
2021/09/13 05:04:34;;;;;;;25.95;18.67;;;;;;;19.00;63.48;100028.00;5074316;28;20059;-76
2021/09/13 05:07:03;;;;;;;25.23;18.52;;;;;;;19.05;63.51;100022.97;5083634;28;20044;-70
2021/09/13 05:09:29;;;;;;;26.25;20.27;;;;;;;19.08;63.36;100025.28;5075871;28;20730;-75
2021/09/13 05:11:56;;;;;;;27.48;19.15;;;;;;;19.12;63.43;100021.25;5085812;28;20481;-73
2021/09/13 05:14:23;;;;;;;23.80;18.17;;;;;;;19.18;63.09;100022.44;5084583;28;20055;-71
2021/09/13 05:16:50;;;;;;;29.95;20.33;;;;;;;19.23;62.95;100023.59;5074326;28;20045;-72
2021/09/13 05:19:17;;;;;;;27.95;19.75;;;;;;;19.30;63.07;100023.69;5068567;28;20071;-73
2021/09/13 05:21:44;;;;;;;27.48;18.45;;;;;;;19.37;62.78;100019.31;5069401;28;20049;-71
2021/09/13 05:24:13;;;;;;;26.90;19.40;;;;;;;19.43;62.71;100023.16;5075297;28;20602;-73
2021/09/13 05:26:41;;;;;;;27.00;19.63;;;;;;;19.46;62.71;100022.81;5075595;28;20040;-76
2021/09/13 05:29:08;;;;;;;26.02;17.80;;;;;;;19.48;62.41;100018.09;5073982;28;20110;-75
2021/09/13 05:31:35;;;;;;;23.80;17.13;;;;;;;19.55;62.69;100027.09;5075196;28;20221;-70
2021/09/13 05:34:02;;;;;;;25.35;18.63;;;;;;;19.62;62.57;100030.75;5076103;28;20041;-72
2021/09/13 05:36:28;;;;;;;23.98;16.95;;;;;;;19.70;62.04;100029.91;5075355;28;20564;-75
2021/09/13 05:38:55;;;;;;;25.88;17.73;;;;;;;19.78;62.20;100029.88;5068330;28;20044;-78
2021/09/13 05:41:24;;;;;;;24.00;17.33;;;;;;;19.86;61.95;100032.50;5068245;28;20059;-75
2021/09/13 05:43:51;;;;;;;24.88;17.13;;;;;;;19.95;61.71;100033.28;5069333;28;20055;-74
2021/09/13 05:46:17;;;;;;;26.85;18.20;;;;;;;20.03;61.67;100038.59;5067125;28;20071;-78
2021/09/13 05:48:44;;;;;;;24.05;16.08;;;;;;;20.12;61.50;100035.84;5066471;28;20168;-72
2021/09/13 05:51:11;;;;;;;24.65;16.42;;;;;;;20.21;61.46;100038.28;5066856;28;20086;-77
2021/09/13 05:53:38;;;;;;;25.40;17.17;;;;;;;20.32;61.29;100037.03;5064933;28;20050;-77
2021/09/13 05:56:05;;;;;;;24.05;17.27;;;;;;;20.42;60.78;100034.94;5064964;28;20056;-71
2021/09/13 05:58:34;;;;;;;21.40;16.10;;;;;;;20.54;60.95;100034.50;5063216;28;20045;-74
2021/09/13 06:01:01;;;;;;;26.00;18.10;;;;;;;20.61;60.61;100040.84;5067903;28;20036;-75
2021/09/13 06:03:28;;;;;;;24.65;17.38;;;;;;;20.68;60.35;100033.72;5064350;28;20428;-75
2021/09/13 06:05:55;;;;;;;21.88;17.10;;;;;;;20.75;60.43;100040.03;5064735;28;20051;-74
2021/09/13 06:08:23;;;;;;;23.35;17.40;;;;;;;20.83;60.04;100038.28;5063983;28;20172;-77
2021/09/13 06:10:50;;;;;;;24.10;18.00;;;;;;;20.92;60.00;100035.34;5068586;28;20048;-77
2021/09/13 06:13:17;;;;;;;22.08;17.50;;;;;;;20.98;59.75;100042.66;5066648;28;20075;-77
2021/09/13 06:15:45;;;;;;;22.63;17.25;;;;;;;21.06;59.78;100028.28;5066226;28;20060;-77
2021/09/13 06:18:14;;;;;;;23.40;17.25;;;;;;;21.15;59.29;100032.56;5064076;28;20044;-77
2021/09/13 06:20:42;;;;;;;24.70;16.42;;;;;;;21.29;59.43;100036.25;5064315;28;20052;-76
2021/09/13 06:23:10;;;;;;;22.63;16.90;;;;;;;21.43;59.11;100034.59;5063813;28;20666;-74
2021/09/13 06:25:36;;;;;;;26.48;17.30;;;;;;;21.60;58.96;100039.78;5067764;28;20070;-76
2021/09/13 06:28:04;;;;;;;26.58;17.85;;;;;;;21.72;58.78;100036.41;5065248;28;20049;-75
2021/09/13 06:30:31;;;;;;;23.45;16.88;;;;;;;21.86;58.44;100037.38;5063891;28;20052;-73
2021/09/13 06:32:59;;;;;;;22.08;17.40;;;;;;;22.03;58.45;100035.28;5064970;28;20048;-75
2021/09/13 06:35:26;;;;;;;21.42;15.95;;;;;;;22.19;57.88;100038.75;5065771;28;20140;-75
2021/09/13 06:37:53;;;;;;;24.25;16.10;;;;;;;22.32;57.82;100031.66;5064255;28;20061;-77
2021/09/13 06:40:20;;;;;;;20.92;15.07;;;;;;;22.45;57.37;100025.53;5065391;28;20052;-77
2021/09/13 06:42:48;;;;;;;20.02;15.02;;;;;;;22.52;57.24;100029.13;5064114;28;20772;-76
2021/09/13 06:45:20;;;;;;;17.23;15.07;;;;;;;22.60;57.37;100030.00;5065383;28;20047;-78
2021/09/13 06:47:47;;;;;;;19.30;14.15;;;;;;;22.68;57.50;100030.69;5064152;28;20481;-74
2021/09/13 06:50:18;;;;;;;20.30;13.63;;;;;;;22.88;56.85;100027.31;5070188;28;20060;-75
2021/09/13 06:52:49;;;;;;;15.23;13.10;;;;;;;22.92;56.63;100028.56;5069501;28;20044;-75
2021/09/13 06:55:16;;;;;;;20.73;14.00;;;;;;;22.97;56.65;100030.69;5069231;28;20127;-79
2021/09/13 06:57:43;;;;;;;20.02;14.68;;;;;;;22.98;56.40;100035.88;5063197;28;20059;-77
2021/09/13 07:00:12;;;;;;;18.83;14.40;;;;;;;23.05;56.03;100034.09;5063457;28;20061;-79
2021/09/13 07:02:41;;;;;;;18.42;14.07;;;;;;;23.01;56.21;100037.34;5063364;28;20044;-77
2021/09/13 07:05:10;;;;;;;17.60;14.52;;;;;;;23.06;55.95;100041.13;5067337;28;20044;-79
2021/09/13 07:07:39;;;;;;;16.58;14.43;;;;;;;23.10;55.53;100036.19;5070189;28;20048;-77
2021/09/13 07:10:08;;;;;;;19.67;16.33;;;;;;;22.72;56.34;100041.91;5072927;28;20044;-78
2021/09/13 07:12:36;;;;;;;14.25;12.02;;;;;;;22.70;56.69;100044.78;5078380;28;20048;-75
2021/09/13 07:15:04;;;;;;;15.45;13.60;;;;;;;22.76;56.32;100045.03;5073743;28;20119;-78
2021/09/13 07:17:31;;;;;;;16.10;13.95;;;;;;;22.71;56.46;100042.94;5067316;28;20048;-77
2021/09/13 07:19:58;;;;;;;13.52;11.98;;;;;;;22.94;55.99;100044.53;5064883;28;20049;-77
2021/09/13 07:22:25;;;;;;;14.73;11.98;;;;;;;23.09;55.73;100045.31;5066472;28;20075;-72
2021/09/13 07:24:55;;;;;;;16.05;12.63;;;;;;;23.06;55.65;100046.50;5066380;28;20081;-75
2021/09/13 07:27:24;;;;;;;17.25;13.30;;;;;;;23.16;55.41;100045.34;5065083;28;20052;-76
2021/09/13 07:29:51;;;;;;;18.25;12.68;;;;;;;23.22;55.38;100056.16;5064584;28;20048;-75
2021/09/13 07:32:19;;;;;;;16.73;13.43;;;;;;;23.19;55.65;100058.41;5065862;28;20056;-77
2021/09/13 07:34:46;;;;;;;20.17;13.18;;;;;;;23.24;55.69;100055.94;5066807;28;20074;-79
2021/09/13 07:37:13;;;;;;;20.00;12.68;;;;;;;23.17;55.22;100055.06;5067053;28;20045;-74
2021/09/13 07:39:39;;;;;;;18.38;15.40;;;;;;;22.98;55.68;100062.00;5078497;28;20045;-72
2021/09/13 07:42:08;;;;;;;16.17;13.00;;;;;;;22.92;55.99;100063.59;5077560;28;20104;-75
2021/09/13 07:44:35;;;;;;;19.27;13.40;;;;;;;23.12;56.09;100058.38;5059541;28;20096;-78
2021/09/13 07:47:02;;;;;;;23.58;14.13;;;;;;;23.11;55.42;100058.56;5032627;28;20048;-78
2021/09/13 07:49:29;;;;;;;18.02;13.85;;;;;;;22.98;55.16;100067.38;5069587;28;20048;-77
2021/09/13 07:51:56;;;;;;;19.58;14.25;;;;;;;22.94;55.74;100055.31;5069587;28;20071;-78
2021/09/13 07:54:23;;;;;;;18.38;14.57;;;;;;;23.02;55.32;100058.69;5065015;28;20059;-74
2021/09/13 07:56:50;;;;;;;15.35;12.88;;;;;;;22.93;55.04;100065.25;5066036;28;20049;-73
2021/09/13 07:59:18;;;;;;;17.63;12.25;;;;;;;23.04;55.31;100066.56;5064285;28;20041;-78
2021/09/13 08:01:45;;;;;;;17.17;13.27;;;;;;;23.33;54.71;100070.91;5028724;28;20558;-76
2021/09/13 08:04:12;;;;;;;15.27;13.40;;;;;;;23.18;54.24;100071.06;5065243;28;20059;-73
2021/09/13 08:29:20;;;;;;;15.60;10.82;;;;;;;23.49;53.17;100085.94;5056950;28;20503;-76
2021/09/13 08:31:48;;;;;;;14.40;11.65;;;;;;;23.76;51.98;100086.06;5061474;28;20060;-71
2021/09/13 08:34:16;;;;;;;13.45;11.68;;;;;;;23.78;51.37;100081.28;5064022;28;20052;-75
2021/09/13 08:36:44;;;;;;;12.23;10.40;;;;;;;23.90;51.30;100070.78;5066562;28;20048;-77
2021/09/13 08:39:11;;;;;;;10.80;9.00;;;;;;;24.32;50.95;100074.19;5066505;28;20049;-77
2021/09/13 08:41:37;;;;;;;11.75;9.75;;;;;;;24.92;49.36;100068.78;5068491;28;20059;-74
2021/09/13 08:44:07;;;;;;;14.18;10.43;;;;;;;24.64;49.23;100069.03;5070680;28;20285;-77
2021/09/13 08:46:42;;;;;;;10.82;9.45;;;;;;;24.36;49.62;100075.41;5069444;28;20477;-74
2021/09/13 08:49:11;;;;;;;12.20;9.07;;;;;;;24.39;50.39;100075.03;5069939;28;20044;-77
2021/09/13 08:51:39;;;;;;;10.32;8.05;;;;;;;24.55;49.91;100077.34;5067180;28;20110;-79
2021/09/13 08:54:09;;;;;;;14.02;10.68;;;;;;;24.47;49.10;100069.44;5068603;28;20071;-78
2021/09/13 08:56:40;;;;;;;12.63;11.25;;;;;;;24.36;49.20;100076.28;5070606;28;20048;-76
2021/09/13 08:59:13;;;;;;;11.02;8.48;;;;;;;24.40;50.03;100079.41;5064899;28;20157;-79
2021/09/13 09:01:43;;;;;;;13.98;9.10;;;;;;;24.67;49.27;100082.13;5066067;28;20055;-75
2021/09/13 09:04:12;;;;;;;13.15;10.20;;;;;;;24.83;48.08;100073.63;5069257;28;20063;-77
2021/09/13 09:06:41;;;;;;;10.43;9.25;;;;;;;24.56;47.59;100062.81;5067097;28;20062;-76
2021/09/13 09:09:10;;;;;;;11.23;8.65;;;;;;;24.64;47.80;100077.97;5069183;28;20131;-79
2021/09/13 09:11:56;;;;;;;10.40;7.65;;;;;;;24.98;47.12;100067.97;5068944;28;20070;-75
2021/09/13 09:14:33;;;;;;;15.68;11.00;;;;;;;24.79;47.33;100075.06;5075118;28;20120;-74
2021/09/13 09:17:04;;;;;;;12.38;9.02;;;;;;;24.84;47.97;100074.44;5075512;28;20048;-78
2021/09/13 09:19:31;;;;;;;14.48;9.40;;;;;;;24.97;47.38;100077.97;5072692;28;20131;-72
2021/09/13 09:22:17;;;;;;;11.52;8.93;;;;;;;24.72;46.99;100074.22;5068825;28;20047;-75
2021/09/13 09:24:44;;;;;;;10.45;8.40;;;;;;;24.66;47.47;100080.47;5069322;28;20040;-75
2021/09/13 09:27:10;;;;;;;10.30;7.63;;;;;;;24.37;47.82;100071.69;5064897;28;20097;-78
2021/09/13 09:29:37;;;;;;;9.18;7.78;;;;;;;24.30;47.35;100074.38;5067554;28;20044;-78
2021/09/13 09:32:07;;;;;;;8.57;7.43;;;;;;;24.48;47.81;100068.38;5065310;28;20048;-79
2021/09/13 09:34:35;;;;;;;8.10;6.90;;;;;;;24.64;46.83;100071.75;5064751;28;20048;-75
2021/09/13 09:37:13;;;;;;;7.38;6.18;;;;;;;24.48;46.74;100073.78;5066176;28;20040;-75
2021/09/13 09:39:43;;;;;;;8.45;6.75;;;;;;;24.56;47.32;100076.31;5065390;28;20044;-71
2021/09/13 09:42:12;;;;;;;11.73;7.25;;;;;;;24.67;46.18;100077.56;5064790;28;20553;-78
2021/09/13 09:44:44;;;;;;;7.78;5.72;;;;;;;24.86;45.93;100075.88;5064659;28;20518;-76
2021/09/13 09:47:13;;;;;;;6.60;5.57;;;;;;;24.91;45.82;100072.56;5063370;28;20049;-80
2021/09/13 09:49:46;;;;;;;10.10;7.00;;;;;;;24.70;46.12;100071.72;5063559;28;20531;-76
2021/09/13 09:52:28;;;;;;;9.45;6.97;;;;;;;24.75;45.53;100071.94;5066329;28;20057;-74
2021/09/13 09:55:06;;;;;;;9.82;8.10;;;;;;;24.85;44.87;100067.97;5062509;28;20048;-75
2021/09/13 09:57:33;;;;;;;9.98;6.45;;;;;;;24.96;45.22;100070.88;5063268;28;20055;-73
2021/09/13 10:00:00;;;;;;;9.10;7.97;;;;;;;25.03;44.68;100070.03;5061203;28;20743;-73
2021/09/13 10:02:42;;;;;;;9.00;7.95;;;;;;;25.16;44.12;100070.84;5063256;28;20131;-76
2021/09/13 10:05:09;;;;;;;8.98;7.22;;;;;;;25.27;44.29;100071.28;5063424;28;20048;-72
2021/09/13 10:07:39;;;;;;;11.10;7.35;;;;;;;25.52;44.05;100077.63;5062108;28;20040;-72
2021/09/13 10:10:07;;;;;;;9.23;6.63;;;;;;;25.92;43.16;100063.91;5061047;28;20048;-76
2021/09/13 10:12:35;;;;;;;10.38;6.32;;;;;;;26.65;42.03;100073.47;5062660;28;20049;-74
2021/09/13 10:15:03;;;;;;;8.85;7.13;;;;;;;26.96;40.19;100073.63;5063091;28;20060;-74
2021/09/13 10:17:34;;;;;;;13.18;4.97;;;;;;;27.37;39.59;100075.72;5067453;28;20127;-73
2021/09/13 10:20:02;;;;;;;10.65;6.43;;;;;;;27.32;39.20;100072.03;5063169;28;20063;-75
2021/09/13 10:22:29;;;;;;;6.85;4.97;;;;;;;27.89;39.08;100067.09;5063267;28;20153;-74
2021/09/13 10:24:57;;;;;;;9.23;6.18;;;;;;;28.18;37.86;100067.34;5064170;28;20048;-79
2021/09/13 10:27:25;;;;;;;6.18;4.32;;;;;;;27.90;38.16;100073.38;5062823;28;20106;-73
2021/09/13 10:30:11;;;;;;;5.45;4.47;;;;;;;28.14;38.84;100066.97;5062193;28;20063;-73
2021/09/13 10:32:42;;;;;;;11.70;7.88;;;;;;;28.01;38.63;100059.88;5063920;28;20044;-73
2021/09/13 10:35:09;;;;;;;11.52;9.57;;;;;;;27.15;39.57;100067.13;5063279;28;20118;-74
2021/09/13 10:37:42;;;;;;;8.98;6.68;;;;;;;26.57;41.08;100071.00;5062365;28;20184;-75
2021/09/13 10:40:11;;;;;;;10.10;7.18;;;;;;;26.33;41.65;100072.66;5063899;28;20048;-73
2021/09/13 10:42:43;;;;;;;7.45;6.35;;;;;;;26.17;42.07;100075.88;5064779;28;20128;-76
2021/09/13 10:45:13;;;;;;;7.88;6.47;;;;;;;25.93;42.50;100065.63;5064489;28;20084;-76
2021/09/13 10:47:43;;;;;;;9.90;7.35;;;;;;;25.89;42.58;100071.63;5063645;28;20472;-76
2021/09/13 10:50:21;;;;;;;12.52;6.45;;;;;;;26.18;41.99;100058.59;5063292;28;20049;-74
2021/09/13 10:52:49;;;;;;;10.13;6.53;;;;;;;26.35;41.94;100067.03;5069207;28;20477;-76
2021/09/13 10:55:27;;;;;;;7.68;6.20;;;;;;;26.81;40.38;100058.53;5066377;28;20045;-74
2021/09/13 10:57:56;;;;;;;6.60;5.47;;;;;;;27.04;39.23;100057.88;5063499;28;20055;-72
2021/09/13 11:00:53;;;;;;;8.82;5.90;;;;;;;26.57;39.91;100054.75;5064050;28;20044;-77
2021/09/13 11:03:52;;;;;;;9.20;5.25;;;;;;;26.28;38.51;100048.09;5056831;28;20036;-76
2021/09/13 11:09:22;;;;;;;5.13;3.80;;;;;;;26.21;40.01;100053.56;5063031;28;20052;-75
2021/09/13 11:12:07;;;;;;;9.27;4.78;;;;;;;26.47;38.88;100044.41;5067369;28;20044;-75
2021/09/13 11:14:34;;;;;;;6.55;4.78;;;;;;;26.55;38.28;100048.72;5066650;28;20114;-73
2021/09/13 11:17:03;;;;;;;5.90;4.13;;;;;;;27.13;38.05;100050.28;5067792;28;20076;-74
2021/09/13 11:19:32;;;;;;;6.53;4.53;;;;;;;27.34;37.68;100037.38;5065872;28;20094;-72
2021/09/13 11:22:02;;;;;;;10.75;6.05;;;;;;;27.06;37.82;100046.81;5065139;28;20048;-75
2021/09/13 11:24:31;;;;;;;8.20;5.10;;;;;;;27.02;37.41;100051.03;5063585;28;20053;-72
2021/09/13 11:26:59;;;;;;;5.97;4.55;;;;;;;26.88;37.10;100050.31;5064394;28;20044;-74
2021/09/13 11:29:28;;;;;;;8.07;3.83;;;;;;;27.04;37.30;100051.63;5062419;28;20052;-74
2021/09/13 11:31:56;;;;;;;5.65;4.47;;;;;;;27.47;37.09;100053.47;5067805;28;20049;-74
2021/09/13 11:34:27;;;;;;;6.38;4.45;;;;;;;27.23;35.81;100053.28;5066712;28;20045;-74
2021/09/13 11:37:02;;;;;;;6.13;3.90;;;;;;;26.81;35.02;100047.69;5069729;28;20626;-79
2021/09/13 11:39:31;;;;;;;9.43;4.53;;;;;;;26.55;36.44;100056.03;5064563;28;20048;-75
2021/09/13 11:42:01;;;;;;;10.38;4.30;;;;;;;26.51;37.68;100061.88;5063391;28;20058;-75
2021/09/13 11:44:29;;;;;;;5.95;4.28;;;;;;;26.67;38.09;100067.84;5062463;28;20049;-74
2021/09/13 11:46:58;;;;;;;6.03;5.35;;;;;;;26.42;38.77;100057.78;5063151;28;20051;-73
2021/09/13 11:49:27;;;;;;;7.60;5.85;;;;;;;26.16;39.82;100058.78;5062850;28;20619;-74